sensor_id;sensor_type;location;lat;lon;timestamp;pressure;altitude;pressure_sealevel;temperature;humidity
13690;BME280;6917;52.194;9.894;2022-07-05T00:02:02;100792.53;;;14.77;94.61
13690;BME280;6917;52.194;9.894;2022-07-05T00:04:28;100795.78;;;14.71;95.13
13690;BME280;6917;52.194;9.894;2022-07-05T00:06:53;100791.13;;;14.63;95.70
13690;BME280;6917;52.194;9.894;2022-07-05T00:09:37;100794.38;;;14.56;96.47
13690;BME280;6917;52.194;9.894;2022-07-05T00:12:03;100796.00;;;14.57;97.12
13690;BME280;6917;52.194;9.894;2022-07-05T00:14:29;100785.50;;;14.50;97.78
13690;BME280;6917;52.194;9.894;2022-07-05T00:16:55;100787.47;;;14.50;98.53
13690;BME280;6917;52.194;9.894;2022-07-05T00:19:20;100794.56;;;14.51;99.03
13690;BME280;6917;52.194;9.894;2022-07-05T00:21:46;100791.69;;;14.47;99.08
13690;BME280;6917;52.194;9.894;2022-07-05T00:24:11;100800.38;;;14.41;99.18
13690;BME280;6917;52.194;9.894;2022-07-05T00:26:37;100798.28;;;14.38;99.27
13690;BME280;6917;52.194;9.894;2022-07-05T00:29:02;100803.00;;;14.28;99.61
13690;BME280;6917;52.194;9.894;2022-07-05T00:31:27;100812.09;;;14.20;100.00
13690;BME280;6917;52.194;9.894;2022-07-05T00:33:53;100804.00;;;14.24;100.00
13690;BME280;6917;52.194;9.894;2022-07-05T00:36:18;100806.41;;;14.25;100.00
13690;BME280;6917;52.194;9.894;2022-07-05T00:38:44;100801.06;;;14.29;100.00
13690;BME280;6917;52.194;9.894;2022-07-05T00:41:09;100815.44;;;14.35;100.00
13690;BME280;6917;52.194;9.894;2022-07-05T00:43:34;100818.53;;;14.33;100.00
13690;BME280;6917;52.194;9.894;2022-07-05T00:46:00;100810.78;;;14.26;100.00
13690;BME280;6917;52.194;9.894;2022-07-05T00:48:25;100818.53;;;14.24;100.00
13690;BME280;6917;52.194;9.894;2022-07-05T00:50:52;100824.56;;;14.18;100.00
13690;BME280;6917;52.194;9.894;2022-07-05T00:53:17;100822.75;;;14.13;100.00
13690;BME280;6917;52.194;9.894;2022-07-05T00:55:44;100825.53;;;14.05;100.00
13690;BME280;6917;52.194;9.894;2022-07-05T00:58:10;100826.19;;;13.93;100.00
13690;BME280;6917;52.194;9.894;2022-07-05T01:00:36;100820.84;;;13.88;100.00
13690;BME280;6917;52.194;9.894;2022-07-05T01:03:02;100826.03;;;13.89;100.00
13690;BME280;6917;52.194;9.894;2022-07-05T01:05:28;100825.53;;;13.87;100.00
13690;BME280;6917;52.194;9.894;2022-07-05T01:07:55;100826.34;;;13.88;100.00
13690;BME280;6917;52.194;9.894;2022-07-05T01:10:21;100818.44;;;13.95;100.00
13690;BME280;6917;52.194;9.894;2022-07-05T01:12:47;100818.72;;;14.02;100.00
13690;BME280;6917;52.194;9.894;2022-07-05T01:15:12;100818.91;;;14.06;100.00
13690;BME280;6917;52.194;9.894;2022-07-05T01:17:38;100813.09;;;14.07;100.00
13690;BME280;6917;52.194;9.894;2022-07-05T01:20:05;100813.41;;;14.06;100.00
13690;BME280;6917;52.194;9.894;2022-07-05T01:22:49;100820.53;;;14.07;100.00
13690;BME280;6917;52.194;9.894;2022-07-05T01:25:16;100815.34;;;14.05;100.00
13690;BME280;6917;52.194;9.894;2022-07-05T01:27:41;100819.38;;;13.99;100.00
13690;BME280;6917;52.194;9.894;2022-07-05T01:30:07;100822.47;;;13.97;100.00
13690;BME280;6917;52.194;9.894;2022-07-05T01:32:33;100820.69;;;13.93;100.00
13690;BME280;6917;52.194;9.894;2022-07-05T01:34:58;100828.47;;;13.91;100.00
13690;BME280;6917;52.194;9.894;2022-07-05T01:37:23;100820.38;;;13.86;100.00
13690;BME280;6917;52.194;9.894;2022-07-05T01:39:49;100820.53;;;13.81;100.00
13690;BME280;6917;52.194;9.894;2022-07-05T01:42:16;100822.13;;;13.73;100.00
13690;BME280;6917;52.194;9.894;2022-07-05T01:44:41;100811.31;;;13.68;100.00
13690;BME280;6917;52.194;9.894;2022-07-05T01:47:07;100819.25;;;13.69;100.00
13690;BME280;6917;52.194;9.894;2022-07-05T01:49:34;100816.81;;;13.68;100.00
13690;BME280;6917;52.194;9.894;2022-07-05T01:52:08;100820.53;;;13.63;100.00
13690;BME280;6917;52.194;9.894;2022-07-05T01:54:34;100822.47;;;13.72;100.00
13690;BME280;6917;52.194;9.894;2022-07-05T01:57:00;100815.84;;;13.73;100.00
13690;BME280;6917;52.194;9.894;2022-07-05T01:59:27;100817.31;;;13.61;100.00
13690;BME280;6917;52.194;9.894;2022-07-05T02:01:52;100826.50;;;13.57;100.00
13690;BME280;6917;52.194;9.894;2022-07-05T02:04:18;100829.88;;;13.45;100.00
13690;BME280;6917;52.194;9.894;2022-07-05T02:06:44;100836.66;;;13.39;100.00
13690;BME280;6917;52.194;9.894;2022-07-05T02:09:10;100831.34;;;13.34;100.00
13690;BME280;6917;52.194;9.894;2022-07-05T02:11:36;100830.16;;;13.26;100.00
13690;BME280;6917;52.194;9.894;2022-07-05T02:14:02;100830.00;;;13.23;100.00
13690;BME280;6917;52.194;9.894;2022-07-05T02:16:28;100821.22;;;13.12;100.00
13690;BME280;6917;52.194;9.894;2022-07-05T02:18:54;100821.66;;;12.97;100.00
13690;BME280;6917;52.194;9.894;2022-07-05T02:21:20;100825.53;;;12.96;100.00
13690;BME280;6917;52.194;9.894;2022-07-05T02:23:45;100826.34;;;12.96;100.00
13690;BME280;6917;52.194;9.894;2022-07-05T02:26:11;100834.09;;;12.94;100.00
13690;BME280;6917;52.194;9.894;2022-07-05T02:28:37;100831.66;;;12.93;100.00
13690;BME280;6917;52.194;9.894;2022-07-05T02:31:02;100832.78;;;12.92;100.00
13690;BME280;6917;52.194;9.894;2022-07-05T02:33:27;100832.91;;;12.87;100.00
13690;BME280;6917;52.194;9.894;2022-07-05T02:35:53;100830.81;;;12.75;100.00
13690;BME280;6917;52.194;9.894;2022-07-05T02:38:18;100828.88;;;12.75;100.00
13690;BME280;6917;52.194;9.894;2022-07-05T02:40:43;100825.16;;;12.80;100.00
13690;BME280;6917;52.194;9.894;2022-07-05T02:43:09;100829.84;;;12.79;100.00
13690;BME280;6917;52.194;9.894;2022-07-05T02:45:34;100836.47;;;12.78;100.00
13690;BME280;6917;52.194;9.894;2022-07-05T02:47:59;100835.00;;;12.81;100.00
13690;BME280;6917;52.194;9.894;2022-07-05T02:50:25;100834.56;;;12.88;100.00
13690;BME280;6917;52.194;9.894;2022-07-05T02:52:50;100845.06;;;12.94;100.00
13690;BME280;6917;52.194;9.894;2022-07-05T02:55:15;100840.91;;;13.05;100.00
13690;BME280;6917;52.194;9.894;2022-07-05T02:57:41;100829.34;;;13.17;100.00
13690;BME280;6917;52.194;9.894;2022-07-05T03:00:07;100840.66;;;13.24;100.00
13690;BME280;6917;52.194;9.894;2022-07-05T03:02:33;100846.91;;;13.16;100.00
13690;BME280;6917;52.194;9.894;2022-07-05T03:04:58;100844.75;;;12.96;100.00
13690;BME280;6917;52.194;9.894;2022-07-05T03:07:23;100846.47;;;12.83;100.00
13690;BME280;6917;52.194;9.894;2022-07-05T03:09:48;100841.09;;;12.69;100.00
13690;BME280;6917;52.194;9.894;2022-07-05T03:12:14;100846.53;;;12.61;100.00
13690;BME280;6917;52.194;9.894;2022-07-05T03:14:39;100852.34;;;12.59;100.00
13690;BME280;6917;52.194;9.894;2022-07-05T03:17:04;100851.56;;;12.67;100.00
13690;BME280;6917;52.194;9.894;2022-07-05T03:19:30;100855.78;;;12.73;100.00
13690;BME280;6917;52.194;9.894;2022-07-05T03:21:55;100852.44;;;12.85;100.00
13690;BME280;6917;52.194;9.894;2022-07-05T03:24:20;100853.94;;;13.00;100.00
13690;BME280;6917;52.194;9.894;2022-07-05T03:26:46;100863.81;;;13.09;100.00
13690;BME280;6917;52.194;9.894;2022-07-05T03:29:11;100862.22;;;13.08;100.00
13690;BME280;6917;52.194;9.894;2022-07-05T03:31:36;100854.03;;;13.17;100.00
13690;BME280;6917;52.194;9.894;2022-07-05T03:34:02;100859.06;;;13.24;100.00
13690;BME280;6917;52.194;9.894;2022-07-05T03:36:27;100858.25;;;13.23;100.00
13690;BME280;6917;52.194;9.894;2022-07-05T03:38:52;100861.81;;;13.24;100.00
13690;BME280;6917;52.194;9.894;2022-07-05T03:41:18;100865.72;;;13.31;100.00
13690;BME280;6917;52.194;9.894;2022-07-05T03:43:43;100858.94;;;13.37;100.00
13690;BME280;6917;52.194;9.894;2022-07-05T03:46:08;100862.81;;;13.45;100.00
13690;BME280;6917;52.194;9.894;2022-07-05T03:48:34;100875.44;;;13.46;100.00
13690;BME280;6917;52.194;9.894;2022-07-05T03:50:59;100875.25;;;13.43;100.00
13690;BME280;6917;52.194;9.894;2022-07-05T03:53:24;100877.97;;;13.43;100.00
13690;BME280;6917;52.194;9.894;2022-07-05T03:55:50;100884.44;;;13.38;100.00
13690;BME280;6917;52.194;9.894;2022-07-05T03:58:15;100887.03;;;13.34;100.00
13690;BME280;6917;52.194;9.894;2022-07-05T04:00:40;100898.13;;;13.29;100.00
13690;BME280;6917;52.194;9.894;2022-07-05T04:03:06;100885.06;;;13.26;100.00
13690;BME280;6917;52.194;9.894;2022-07-05T04:05:31;100898.44;;;13.28;100.00
13690;BME280;6917;52.194;9.894;2022-07-05T04:07:57;100885.53;;;13.28;100.00
13690;BME280;6917;52.194;9.894;2022-07-05T04:10:22;100894.91;;;13.27;100.00
13690;BME280;6917;52.194;9.894;2022-07-05T04:12:48;100900.88;;;13.29;100.00
13690;BME280;6917;52.194;9.894;2022-07-05T04:15:14;100896.38;;;13.33;100.00
13690;BME280;6917;52.194;9.894;2022-07-05T04:17:53;100905.91;;;13.36;100.00
13690;BME280;6917;52.194;9.894;2022-07-05T04:20:20;100908.66;;;13.36;100.00
13690;BME280;6917;52.194;9.894;2022-07-05T04:22:47;100905.44;;;13.34;100.00
13690;BME280;6917;52.194;9.894;2022-07-05T04:25:12;100913.19;;;13.40;100.00
13690;BME280;6917;52.194;9.894;2022-07-05T04:27:49;100910.91;;;13.43;100.00
13690;BME280;6917;52.194;9.894;2022-07-05T04:30:16;100914.97;;;13.45;100.00
13690;BME280;6917;52.194;9.894;2022-07-05T04:32:42;100915.97;;;13.49;100.00
13690;BME280;6917;52.194;9.894;2022-07-05T04:35:08;100914.19;;;13.53;100.00
13690;BME280;6917;52.194;9.894;2022-07-05T04:37:34;100913.22;;;13.58;100.00
13690;BME280;6917;52.194;9.894;2022-07-05T04:40:00;100917.59;;;13.67;100.00
13690;BME280;6917;52.194;9.894;2022-07-05T04:42:25;100916.03;;;13.75;100.00
13690;BME280;6917;52.194;9.894;2022-07-05T04:44:50;100916.34;;;13.82;100.00
13690;BME280;6917;52.194;9.894;2022-07-05T04:47:16;100926.53;;;13.90;100.00
13690;BME280;6917;52.194;9.894;2022-07-05T04:49:41;100921.19;;;13.94;100.00
13690;BME280;6917;52.194;9.894;2022-07-05T04:52:07;100922.16;;;13.98;100.00
13690;BME280;6917;52.194;9.894;2022-07-05T04:54:32;100923.13;;;14.02;100.00
13690;BME280;6917;52.194;9.894;2022-07-05T04:56:57;100918.31;;;14.08;100.00
13690;BME280;6917;52.194;9.894;2022-07-05T04:59:23;100921.69;;;14.13;100.00
13690;BME280;6917;52.194;9.894;2022-07-05T05:01:48;100928.97;;;14.18;100.00
13690;BME280;6917;52.194;9.894;2022-07-05T05:04:13;100928.66;;;14.19;100.00
13690;BME280;6917;52.194;9.894;2022-07-05T05:06:38;100921.03;;;14.25;100.00
13690;BME280;6917;52.194;9.894;2022-07-05T05:09:04;100924.41;;;14.30;100.00
13690;BME280;6917;52.194;9.894;2022-07-05T05:11:30;100932.81;;;14.43;100.00
13690;BME280;6917;52.194;9.894;2022-07-05T05:13:55;100937.06;;;14.49;100.00
13690;BME280;6917;52.194;9.894;2022-07-05T05:16:21;100938.31;;;14.60;100.00
13690;BME280;6917;52.194;9.894;2022-07-05T05:18:46;100933.63;;;14.69;100.00
13690;BME280;6917;52.194;9.894;2022-07-05T05:21:11;100932.63;;;14.82;100.00
13690;BME280;6917;52.194;9.894;2022-07-05T05:23:37;100943.75;;;14.95;100.00
13690;BME280;6917;52.194;9.894;2022-07-05T05:26:02;100941.94;;;15.07;100.00
13690;BME280;6917;52.194;9.894;2022-07-05T05:28:27;100933.47;;;15.21;100.00
13690;BME280;6917;52.194;9.894;2022-07-05T05:30:53;100946.38;;;15.29;99.22
13690;BME280;6917;52.194;9.894;2022-07-05T05:33:18;100942.47;;;15.30;98.42
13690;BME280;6917;52.194;9.894;2022-07-05T05:35:43;100941.66;;;15.30;98.32
13690;BME280;6917;52.194;9.894;2022-07-05T05:38:09;100947.72;;;15.23;98.65
13690;BME280;6917;52.194;9.894;2022-07-05T05:40:34;100948.38;;;15.20;98.97
13690;BME280;6917;52.194;9.894;2022-07-05T05:43:03;100955.81;;;15.20;99.33
13690;BME280;6917;52.194;9.894;2022-07-05T05:45:28;100959.66;;;15.27;100.00
13690;BME280;6917;52.194;9.894;2022-07-05T05:47:57;100960.28;;;15.33;100.00
13690;BME280;6917;52.194;9.894;2022-07-05T05:50:25;100963.34;;;15.40;99.21
13690;BME280;6917;52.194;9.894;2022-07-05T05:52:51;100960.59;;;15.40;98.36
13690;BME280;6917;52.194;9.894;2022-07-05T05:55:17;100959.41;;;15.50;98.97
13690;BME280;6917;52.194;9.894;2022-07-05T05:57:43;100955.31;;;15.56;99.28
13690;BME280;6917;52.194;9.894;2022-07-05T06:00:09;100961.63;;;15.65;98.07
13690;BME280;6917;52.194;9.894;2022-07-05T06:02:35;100965.47;;;15.72;97.80
13690;BME280;6917;52.194;9.894;2022-07-05T06:05:00;100970.13;;;15.81;96.72
13690;BME280;6917;52.194;9.894;2022-07-05T06:07:25;100977.00;;;15.95;96.37
13690;BME280;6917;52.194;9.894;2022-07-05T06:09:51;100979.34;;;16.05;95.69
13690;BME280;6917;52.194;9.894;2022-07-05T06:12:17;100978.78;;;16.21;95.11
13690;BME280;6917;52.194;9.894;2022-07-05T06:14:42;100990.38;;;16.26;94.51
13690;BME280;6917;52.194;9.894;2022-07-05T06:17:07;100978.28;;;16.19;93.78
13690;BME280;6917;52.194;9.894;2022-07-05T06:19:33;100982.34;;;16.21;94.85
13690;BME280;6917;52.194;9.894;2022-07-05T06:21:58;100981.66;;;16.24;95.57
13690;BME280;6917;52.194;9.894;2022-07-05T06:24:23;100989.16;;;16.15;95.20
13690;BME280;6917;52.194;9.894;2022-07-05T06:26:49;100995.38;;;16.12;94.40
13690;BME280;6917;52.194;9.894;2022-07-05T06:29:14;100996.44;;;16.20;93.83
13690;BME280;6917;52.194;9.894;2022-07-05T06:31:39;100980.75;;;16.32;93.66
13690;BME280;6917;52.194;9.894;2022-07-05T06:34:04;100990.97;;;16.32;92.62
13690;BME280;6917;52.194;9.894;2022-07-05T06:36:30;100995.50;;;16.36;92.74
13690;BME280;6917;52.194;9.894;2022-07-05T06:38:55;101001.41;;;16.47;92.48
13690;BME280;6917;52.194;9.894;2022-07-05T06:41:21;100996.41;;;16.61;92.08
13690;BME280;6917;52.194;9.894;2022-07-05T06:43:46;101000.88;;;16.75;91.43
13690;BME280;6917;52.194;9.894;2022-07-05T06:46:11;101004.69;;;16.82;89.97
13690;BME280;6917;52.194;9.894;2022-07-05T06:48:36;101010.22;;;16.82;89.06
13690;BME280;6917;52.194;9.894;2022-07-05T06:51:02;101010.34;;;16.86;88.10
13690;BME280;6917;52.194;9.894;2022-07-05T06:53:27;101007.59;;;16.86;86.17
13690;BME280;6917;52.194;9.894;2022-07-05T06:55:52;101002.53;;;16.88;86.42
13690;BME280;6917;52.194;9.894;2022-07-05T06:58:18;100999.81;;;17.00;86.07
13690;BME280;6917;52.194;9.894;2022-07-05T07:00:43;101006.41;;;17.08;84.66
13690;BME280;6917;52.194;9.894;2022-07-05T07:03:09;101002.25;;;17.14;84.43
13690;BME280;6917;52.194;9.894;2022-07-05T07:05:34;101007.47;;;17.28;84.46
13690;BME280;6917;52.194;9.894;2022-07-05T07:08:00;101011.25;;;17.35;82.11
13690;BME280;6917;52.194;9.894;2022-07-05T07:10:44;101013.56;;;17.33;81.56
13690;BME280;6917;52.194;9.894;2022-07-05T07:13:09;101011.06;;;17.52;82.10
13690;BME280;6917;52.194;9.894;2022-07-05T07:15:35;101008.19;;;17.61;77.07
13690;BME280;6917;52.194;9.894;2022-07-05T07:18:00;101009.38;;;17.72;74.88
13690;BME280;6917;52.194;9.894;2022-07-05T07:20:26;101022.03;;;17.73;74.27
13690;BME280;6917;52.194;9.894;2022-07-05T07:22:52;101013.03;;;17.76;74.16
13690;BME280;6917;52.194;9.894;2022-07-05T07:25:18;101011.09;;;17.77;72.52
13690;BME280;6917;52.194;9.894;2022-07-05T07:27:47;101015.47;;;17.90;72.87
13690;BME280;6917;52.194;9.894;2022-07-05T07:30:14;101011.41;;;18.12;71.64
13690;BME280;6917;52.194;9.894;2022-07-05T07:32:40;101019.34;;;18.13;71.49
13690;BME280;6917;52.194;9.894;2022-07-05T07:35:06;101019.47;;;18.17;72.29
13690;BME280;6917;52.194;9.894;2022-07-05T07:37:31;101006.41;;;18.30;72.53
13690;BME280;6917;52.194;9.894;2022-07-05T07:39:56;101004.88;;;18.44;70.25
13690;BME280;6917;52.194;9.894;2022-07-05T07:42:22;101019.94;;;18.59;67.23
13690;BME280;6917;52.194;9.894;2022-07-05T07:44:47;101006.13;;;18.47;64.42
13690;BME280;6917;52.194;9.894;2022-07-05T07:47:13;101014.00;;;18.33;65.43
13690;BME280;6917;52.194;9.894;2022-07-05T07:49:38;101015.78;;;18.25;65.43
13690;BME280;6917;52.194;9.894;2022-07-05T07:52:04;101013.53;;;18.43;65.50
13690;BME280;6917;52.194;9.894;2022-07-05T07:54:29;101008.94;;;18.63;64.34
13690;BME280;6917;52.194;9.894;2022-07-05T07:56:54;101013.31;;;18.76;63.28
13690;BME280;6917;52.194;9.894;2022-07-05T07:59:20;101014.88;;;18.89;62.86
13690;BME280;6917;52.194;9.894;2022-07-05T08:01:45;101017.84;;;18.96;61.86
13690;BME280;6917;52.194;9.894;2022-07-05T08:04:11;101018.84;;;19.20;62.72
13690;BME280;6917;52.194;9.894;2022-07-05T08:06:38;101029.78;;;19.28;61.81
13690;BME280;6917;52.194;9.894;2022-07-05T08:09:03;101015.56;;;19.30;61.50
13690;BME280;6917;52.194;9.894;2022-07-05T08:11:28;101009.50;;;19.40;61.62
13690;BME280;6917;52.194;9.894;2022-07-05T08:13:53;101020.75;;;19.47;61.78
13690;BME280;6917;52.194;9.894;2022-07-05T08:16:19;101008.22;;;19.38;61.47
13690;BME280;6917;52.194;9.894;2022-07-05T08:18:45;101005.81;;;19.36;59.71
13690;BME280;6917;52.194;9.894;2022-07-05T08:21:28;101000.63;;;19.35;60.76
13690;BME280;6917;52.194;9.894;2022-07-05T08:24:02;101012.28;;;19.40;60.97
13690;BME280;6917;52.194;9.894;2022-07-05T08:26:27;101008.88;;;19.47;60.79
13690;BME280;6917;52.194;9.894;2022-07-05T08:28:54;101005.75;;;19.64;61.16
13690;BME280;6917;52.194;9.894;2022-07-05T08:31:20;101015.59;;;19.61;60.13
13690;BME280;6917;52.194;9.894;2022-07-05T08:33:46;101008.16;;;19.66;60.68
13690;BME280;6917;52.194;9.894;2022-07-05T08:36:12;101001.63;;;19.74;58.95
13690;BME280;6917;52.194;9.894;2022-07-05T08:38:37;101006.00;;;19.90;58.94
13690;BME280;6917;52.194;9.894;2022-07-05T08:41:07;101002.78;;;19.88;58.10
13690;BME280;6917;52.194;9.894;2022-07-05T08:43:35;101001.91;;;19.69;57.31
13690;BME280;6917;52.194;9.894;2022-07-05T08:46:02;101005.31;;;19.62;58.65
13690;BME280;6917;52.194;9.894;2022-07-05T08:48:29;101002.97;;;19.80;57.79
13690;BME280;6917;52.194;9.894;2022-07-05T08:50:56;101001.44;;;19.98;57.37
13690;BME280;6917;52.194;9.894;2022-07-05T08:53:21;101003.84;;;20.00;56.87
13690;BME280;6917;52.194;9.894;2022-07-05T08:55:47;101001.94;;;20.04;56.91
13690;BME280;6917;52.194;9.894;2022-07-05T08:58:13;101002.56;;;20.13;57.48
13690;BME280;6917;52.194;9.894;2022-07-05T09:00:39;101012.84;;;20.12;56.66
13690;BME280;6917;52.194;9.894;2022-07-05T09:03:05;100999.19;;;19.88;56.59
13690;BME280;6917;52.194;9.894;2022-07-05T09:05:35;101006.81;;;20.10;56.88
13690;BME280;6917;52.194;9.894;2022-07-05T09:08:04;101002.97;;;20.15;55.67
13690;BME280;6917;52.194;9.894;2022-07-05T09:10:33;101002.75;;;20.24;55.51
13690;BME280;6917;52.194;9.894;2022-07-05T09:12:59;101000.75;;;20.40;54.88
13690;BME280;6917;52.194;9.894;2022-07-05T09:15:24;100995.09;;;20.71;55.31
13690;BME280;6917;52.194;9.894;2022-07-05T09:17:50;100996.00;;;20.79;53.30
13690;BME280;6917;52.194;9.894;2022-07-05T09:20:17;101003.63;;;20.63;52.48
13690;BME280;6917;52.194;9.894;2022-07-05T09:22:48;100995.47;;;20.35;53.43
13690;BME280;6917;52.194;9.894;2022-07-05T09:25:19;101006.47;;;20.47;52.75
13690;BME280;6917;52.194;9.894;2022-07-05T09:27:56;101012.16;;;20.54;53.18
13690;BME280;6917;52.194;9.894;2022-07-05T09:33:17;100998.38;;;20.58;52.09
13690;BME280;6917;52.194;9.894;2022-07-05T09:35:53;101001.22;;;20.61;50.30
13690;BME280;6917;52.194;9.894;2022-07-05T09:38:27;101010.69;;;20.79;50.79
13690;BME280;6917;52.194;9.894;2022-07-05T09:40:54;100999.22;;;20.81;49.31
13690;BME280;6917;52.194;9.894;2022-07-05T09:43:24;100992.69;;;20.93;49.04
13690;BME280;6917;52.194;9.894;2022-07-05T09:45:55;100991.97;;;20.96;50.45
13690;BME280;6917;52.194;9.894;2022-07-05T09:48:21;100982.75;;;20.92;50.31
13690;BME280;6917;52.194;9.894;2022-07-05T09:50:48;100987.66;;;20.98;49.65
13690;BME280;6917;52.194;9.894;2022-07-05T09:53:14;100991.94;;;21.15;50.43
13690;BME280;6917;52.194;9.894;2022-07-05T09:55:39;100975.59;;;20.91;48.59
13690;BME280;6917;52.194;9.894;2022-07-05T09:58:06;100975.69;;;21.17;48.93
13690;BME280;6917;52.194;9.894;2022-07-05T10:00:31;100984.50;;;21.23;47.58
13690;BME280;6917;52.194;9.894;2022-07-05T10:02:57;100987.94;;;21.13;48.29
13690;BME280;6917;52.194;9.894;2022-07-05T10:05:32;100987.41;;;21.07;49.57
13690;BME280;6917;52.194;9.894;2022-07-05T10:08:00;100987.16;;;20.93;49.66
13690;BME280;6917;52.194;9.894;2022-07-05T10:10:27;100991.38;;;21.06;49.10
13690;BME280;6917;52.194;9.894;2022-07-05T10:12:55;100992.13;;;21.26;50.24
13690;BME280;6917;52.194;9.894;2022-07-05T10:15:24;100997.84;;;21.56;48.77
13690;BME280;6917;52.194;9.894;2022-07-05T10:18:03;100988.59;;;21.52;48.35
13690;BME280;6917;52.194;9.894;2022-07-05T10:20:41;100988.91;;;21.01;48.38
13690;BME280;6917;52.194;9.894;2022-07-05T10:23:17;100988.28;;;20.69;48.91
13690;BME280;6917;52.194;9.894;2022-07-05T10:25:45;100986.44;;;20.76;50.76
13690;BME280;6917;52.194;9.894;2022-07-05T10:28:14;100996.28;;;20.93;47.52
13690;BME280;6917;52.194;9.894;2022-07-05T10:30:39;100989.59;;;21.17;48.42
13690;BME280;6917;52.194;9.894;2022-07-05T10:33:07;100992.28;;;21.33;47.05
13690;BME280;6917;52.194;9.894;2022-07-05T10:35:33;100990.28;;;21.56;47.00
13690;BME280;6917;52.194;9.894;2022-07-05T10:38:00;100997.97;;;21.66;45.73
13690;BME280;6917;52.194;9.894;2022-07-05T10:40:26;100984.28;;;21.81;45.98
13690;BME280;6917;52.194;9.894;2022-07-05T10:42:58;100989.59;;;21.63;45.46
13690;BME280;6917;52.194;9.894;2022-07-05T10:48:19;100986.72;;;21.56;46.08
13690;BME280;6917;52.194;9.894;2022-07-05T10:51:00;100986.00;;;21.62;45.98
13690;BME280;6917;52.194;9.894;2022-07-05T10:56:20;100982.72;;;22.06;46.35
13690;BME280;6917;52.194;9.894;2022-07-05T10:58:46;100988.97;;;21.73;45.88
13690;BME280;6917;52.194;9.894;2022-07-05T11:06:02;100984.22;;;21.51;46.71
13690;BME280;6917;52.194;9.894;2022-07-05T11:08:29;100988.47;;;21.67;46.77
13690;BME280;6917;52.194;9.894;2022-07-05T11:11:12;100983.22;;;21.62;47.56
13690;BME280;6917;52.194;9.894;2022-07-05T11:13:40;100969.97;;;21.79;46.23
13690;BME280;6917;52.194;9.894;2022-07-05T11:16:25;100976.59;;;21.97;45.63
13690;BME280;6917;52.194;9.894;2022-07-05T11:19:13;100970.56;;;21.91;44.87
13690;BME280;6917;52.194;9.894;2022-07-05T11:22:03;100978.38;;;22.09;44.18
13690;BME280;6917;52.194;9.894;2022-07-05T11:24:31;100967.13;;;22.02;42.88
13690;BME280;6917;52.194;9.894;2022-07-05T11:26:58;100961.97;;;22.04;43.35
13690;BME280;6917;52.194;9.894;2022-07-05T11:29:46;100979.78;;;22.25;40.89
13690;BME280;6917;52.194;9.894;2022-07-05T11:32:14;100972.91;;;22.16;41.28
13690;BME280;6917;52.194;9.894;2022-07-05T11:34:41;100968.38;;;22.34;42.20
13690;BME280;6917;52.194;9.894;2022-07-05T11:37:24;100965.41;;;22.53;41.95
13690;BME280;6917;52.194;9.894;2022-07-05T11:42:33;100964.75;;;22.30;42.22
13690;BME280;6917;52.194;9.894;2022-07-05T11:45:05;100963.28;;;22.10;42.30
13690;BME280;6917;52.194;9.894;2022-07-05T11:47:30;100958.13;;;22.12;42.23
13690;BME280;6917;52.194;9.894;2022-07-05T11:49:56;100952.78;;;22.00;43.52
13690;BME280;6917;52.194;9.894;2022-07-05T11:52:26;100957.47;;;21.95;43.34
13690;BME280;6917;52.194;9.894;2022-07-05T11:54:52;100951.34;;;21.83;42.51
13690;BME280;6917;52.194;9.894;2022-07-05T11:57:19;100957.91;;;21.97;41.18
13690;BME280;6917;52.194;9.894;2022-07-05T11:59:44;100959.72;;;22.13;40.77
13690;BME280;6917;52.194;9.894;2022-07-05T12:02:10;100965.97;;;22.33;42.98
13690;BME280;6917;52.194;9.894;2022-07-05T12:04:36;100960.19;;;22.48;42.97
13690;BME280;6917;52.194;9.894;2022-07-05T12:07:01;100957.31;;;22.41;41.91
13690;BME280;6917;52.194;9.894;2022-07-05T12:09:33;100944.50;;;22.33;41.50
13690;BME280;6917;52.194;9.894;2022-07-05T12:12:22;100948.50;;;22.36;42.47
13690;BME280;6917;52.194;9.894;2022-07-05T12:15:14;100945.75;;;22.39;41.61
13690;BME280;6917;52.194;9.894;2022-07-05T12:17:42;100946.97;;;22.42;42.44
13690;BME280;6917;52.194;9.894;2022-07-05T12:20:09;100944.91;;;22.35;42.18
13690;BME280;6917;52.194;9.894;2022-07-05T12:22:44;100945.72;;;22.36;41.67
13690;BME280;6917;52.194;9.894;2022-07-05T12:25:18;100943.38;;;22.41;41.07
13690;BME280;6917;52.194;9.894;2022-07-05T12:27:44;100935.91;;;21.85;41.46
13690;BME280;6917;52.194;9.894;2022-07-05T12:30:11;100938.72;;;22.49;41.41
13690;BME280;6917;52.194;9.894;2022-07-05T12:32:54;100928.44;;;22.90;40.70
13690;BME280;6917;52.194;9.894;2022-07-05T12:35:39;100942.50;;;23.01;40.63
13690;BME280;6917;52.194;9.894;2022-07-05T12:38:13;100938.84;;;22.97;39.79
13690;BME280;6917;52.194;9.894;2022-07-05T12:41:01;100936.16;;;22.70;40.38
13690;BME280;6917;52.194;9.894;2022-07-05T12:43:27;100941.16;;;22.88;40.73
13690;BME280;6917;52.194;9.894;2022-07-05T12:46:00;100932.41;;;22.89;39.83
13690;BME280;6917;52.194;9.894;2022-07-05T12:48:33;100938.13;;;22.70;40.07
13690;BME280;6917;52.194;9.894;2022-07-05T12:50:59;100926.84;;;22.89;41.40
13690;BME280;6917;52.194;9.894;2022-07-05T12:53:25;100935.94;;;23.27;39.29
13690;BME280;6917;52.194;9.894;2022-07-05T12:56:11;100935.66;;;22.95;39.63
13690;BME280;6917;52.194;9.894;2022-07-05T12:59:08;100934.84;;;22.94;40.66
13690;BME280;6917;52.194;9.894;2022-07-05T13:01:37;100933.59;;;22.88;39.77
13690;BME280;6917;52.194;9.894;2022-07-05T13:04:11;100932.47;;;22.59;40.24
13690;BME280;6917;52.194;9.894;2022-07-05T13:06:59;100918.28;;;22.71;39.52
13690;BME280;6917;52.194;9.894;2022-07-05T13:12:04;100917.28;;;23.38;39.78
13690;BME280;6917;52.194;9.894;2022-07-05T13:14:30;100931.25;;;23.38;38.67
13690;BME280;6917;52.194;9.894;2022-07-05T13:16:55;100933.09;;;23.20;39.63